SAS78 ESSV-ESSA
Flight info
| Callsign | SAS78 |
|---|---|
| Flight time | 0h 38m |
| Altitude | 20000 |
| Route | ROGMI Z229 NILUG |
| Aircraft | A320/M-SDE3FGHIJ1RWXYZ/ALB1 |
Departure
| Time | 2026-05-06 19:49 |
|---|---|
| Airport | Visby Airport (ESSV) |
Arrival
| Time | 2026-05-06 20:27 |
|---|---|
| Airport | Stockholm-Arlanda Airport (ESSA) |
| Time | Latitude | Longitude | Altitude | Speed | Heading |
|---|---|---|---|---|---|
| 2026-05-06 19:22 | 57.66102 | 18.33983 | 159 ft | 0 kts | 337° |
| 2026-05-06 19:40 | 57.66101 | 18.33984 | 159 ft | 2 kts | 337° |
| 2026-05-06 19:40 | 57.66085 | 18.34004 | 159 ft | 4 kts | 275° |
| 2026-05-06 19:41 | 57.66091 | 18.34030 | 159 ft | 2 kts | 201° |
| 2026-05-06 19:41 | 57.66096 | 18.34033 | 159 ft | 0 kts | 201° |
| 2026-05-06 19:44 | 57.66095 | 18.34032 | 159 ft | 1 kts | 201° |
| 2026-05-06 19:45 | 57.66081 | 18.34022 | 159 ft | 3 kts | 201° |
| 2026-05-06 19:45 | 57.66045 | 18.33997 | 159 ft | 7 kts | 198° |
| 2026-05-06 19:45 | 57.66010 | 18.34049 | 159 ft | 9 kts | 94° |
| 2026-05-06 19:45 | 57.65968 | 18.34078 | 159 ft | 10 kts | 204° |
| 2026-05-06 19:46 | 57.65896 | 18.34025 | 159 ft | 13 kts | 201° |
| 2026-05-06 19:46 | 57.65805 | 18.33960 | 161 ft | 15 kts | 200° |
| 2026-05-06 19:46 | 57.65696 | 18.33883 | 159 ft | 18 kts | 201° |
| 2026-05-06 19:46 | 57.65601 | 18.33815 | 159 ft | 12 kts | 200° |
| 2026-05-06 19:47 | 57.65517 | 18.33752 | 161 ft | 14 kts | 201° |
| 2026-05-06 19:47 | 57.65448 | 18.33761 | 161 ft | 8 kts | 155° |
| 2026-05-06 19:47 | 57.65418 | 18.33821 | 161 ft | 0 kts | 120° |
| 2026-05-06 19:47 | 57.65416 | 18.33830 | 161 ft | 2 kts | 117° |
| 2026-05-06 19:48 | 57.65411 | 18.33877 | 161 ft | 6 kts | 91° |
| 2026-05-06 19:48 | 57.65438 | 18.34010 | 159 ft | 17 kts | 43° |
| 2026-05-06 19:48 | 57.65656 | 18.34176 | 159 ft | 64 kts | 21° |
| 2026-05-06 19:48 | 57.66274 | 18.34616 | 158 ft | 123 kts | 21° |
| 2026-05-06 19:49 | 57.67221 | 18.35272 | 215 ft | 162 kts | 20° |
| 2026-05-06 19:49 | 57.68275 | 18.35940 | 892 ft | 158 kts | 22° |
| 2026-05-06 19:49 | 57.69386 | 18.36194 | 1483 ft | 174 kts | 352° |
| 2026-05-06 19:49 | 57.70575 | 18.35312 | 1799 ft | 195 kts | 335° |
| 2026-05-06 19:50 | 57.71869 | 18.34181 | 2101 ft | 215 kts | 340° |
| 2026-05-06 19:50 | 57.73343 | 18.33091 | 2428 ft | 240 kts | 342° |
| 2026-05-06 19:50 | 57.74962 | 18.31955 | 3013 ft | 255 kts | 342° |
| 2026-05-06 19:50 | 57.76641 | 18.30783 | 3940 ft | 259 kts | 342° |
| 2026-05-06 19:51 | 57.78313 | 18.29612 | 4873 ft | 261 kts | 341° |
| 2026-05-06 19:51 | 57.80044 | 18.28396 | 5806 ft | 264 kts | 340° |
| 2026-05-06 19:51 | 57.81748 | 18.27196 | 6687 ft | 267 kts | 341° |
| 2026-05-06 19:51 | 57.83496 | 18.25959 | 7518 ft | 271 kts | 341° |
| 2026-05-06 19:52 | 57.85266 | 18.24701 | 8364 ft | 274 kts | 340° |
| 2026-05-06 19:52 | 57.87060 | 18.23421 | 9195 ft | 278 kts | 340° |
| 2026-05-06 19:52 | 57.88876 | 18.22126 | 9994 ft | 282 kts | 340° |
| 2026-05-06 19:52 | 57.90754 | 18.20788 | 10432 ft | 299 kts | 339° |
| 2026-05-06 19:53 | 57.92768 | 18.19353 | 10695 ft | 318 kts | 339° |
| 2026-05-06 19:53 | 57.94864 | 18.17854 | 11300 ft | 325 kts | 339° |
| 2026-05-06 19:53 | 57.96993 | 18.16326 | 11984 ft | 329 kts | 338° |
| 2026-05-06 19:53 | 57.99149 | 18.14776 | 12678 ft | 333 kts | 337° |
| 2026-05-06 19:54 | 58.01323 | 18.13212 | 13355 ft | 337 kts | 337° |
| 2026-05-06 19:54 | 58.03531 | 18.11622 | 14009 ft | 342 kts | 338° |
| 2026-05-06 19:54 | 58.05769 | 18.10012 | 14609 ft | 345 kts | 337° |
| 2026-05-06 19:54 | 58.08025 | 18.08388 | 15229 ft | 348 kts | 336° |
| 2026-05-06 19:55 | 58.10298 | 18.06747 | 15833 ft | 352 kts | 336° |
| 2026-05-06 19:55 | 58.12592 | 18.05089 | 16429 ft | 355 kts | 336° |
| 2026-05-06 19:55 | 58.14909 | 18.03411 | 17026 ft | 358 kts | 335° |
| 2026-05-06 19:55 | 58.17246 | 18.01718 | 17638 ft | 362 kts | 335° |
| 2026-05-06 19:56 | 58.19666 | 18.00285 | 18236 ft | 369 kts | 344° |
| 2026-05-06 19:56 | 58.22241 | 17.99624 | 18764 ft | 376 kts | 350° |
| 2026-05-06 19:56 | 58.24852 | 17.99151 | 19288 ft | 380 kts | 350° |
| 2026-05-06 19:56 | 58.27503 | 17.98669 | 19798 ft | 383 kts | 350° |
| 2026-05-06 19:57 | 58.30166 | 17.98178 | 19964 ft | 385 kts | 350° |
| 2026-05-06 19:57 | 58.32802 | 17.97692 | 20012 ft | 379 kts | 350° |
| 2026-05-06 19:57 | 58.35417 | 17.97209 | 20022 ft | 376 kts | 349° |
| 2026-05-06 19:57 | 58.38023 | 17.96722 | 20014 ft | 376 kts | 349° |
| 2026-05-06 19:58 | 58.40624 | 17.96232 | 20015 ft | 375 kts | 349° |
| 2026-05-06 19:58 | 58.43221 | 17.95743 | 20015 ft | 376 kts | 349° |
| 2026-05-06 19:58 | 58.45822 | 17.95252 | 20016 ft | 375 kts | 349° |
| 2026-05-06 19:58 | 58.48418 | 17.94766 | 20016 ft | 375 kts | 349° |
| 2026-05-06 19:59 | 58.51020 | 17.94278 | 20016 ft | 375 kts | 349° |
| 2026-05-06 19:59 | 58.53621 | 17.93790 | 20017 ft | 375 kts | 349° |
| 2026-05-06 19:59 | 58.56223 | 17.93303 | 20017 ft | 376 kts | 349° |
| 2026-05-06 19:59 | 58.58824 | 17.92815 | 20023 ft | 376 kts | 349° |
| 2026-05-06 20:00 | 58.61402 | 17.92328 | 19821 ft | 368 kts | 349° |
| 2026-05-06 20:00 | 58.63918 | 17.91852 | 19596 ft | 360 kts | 349° |
| 2026-05-06 20:00 | 58.66382 | 17.91386 | 19350 ft | 352 kts | 349° |
| 2026-05-06 20:00 | 58.68795 | 17.90932 | 19108 ft | 345 kts | 349° |
| 2026-05-06 20:01 | 58.71171 | 17.90483 | 18812 ft | 340 kts | 349° |
| 2026-05-06 20:01 | 58.73519 | 17.90036 | 18426 ft | 339 kts | 349° |
| 2026-05-06 20:01 | 58.75863 | 17.89584 | 17971 ft | 338 kts | 349° |
| 2026-05-06 20:01 | 58.78198 | 17.89133 | 17566 ft | 336 kts | 350° |
| 2026-05-06 20:02 | 58.80536 | 17.89050 | 17160 ft | 338 kts | 1° |
| 2026-05-06 20:02 | 58.82840 | 17.89915 | 16808 ft | 338 kts | 15° |
| 2026-05-06 20:02 | 58.84996 | 17.91664 | 16584 ft | 335 kts | 24° |
| 2026-05-06 20:02 | 58.87087 | 17.93649 | 16322 ft | 333 kts | 24° |
| 2026-05-06 20:03 | 58.89159 | 17.95609 | 16063 ft | 331 kts | 24° |
| 2026-05-06 20:03 | 58.91213 | 17.97554 | 15806 ft | 328 kts | 24° |
| 2026-05-06 20:03 | 58.93262 | 17.99499 | 15555 ft | 327 kts | 23° |
| 2026-05-06 20:03 | 58.95302 | 18.01434 | 15297 ft | 326 kts | 23° |
| 2026-05-06 20:04 | 58.97335 | 18.03359 | 15041 ft | 324 kts | 24° |
| 2026-05-06 20:04 | 58.99355 | 18.05275 | 14788 ft | 322 kts | 24° |
| 2026-05-06 20:04 | 59.01357 | 18.07176 | 14537 ft | 320 kts | 24° |
| 2026-05-06 20:04 | 59.03338 | 18.09065 | 14357 ft | 313 kts | 24° |
| 2026-05-06 20:05 | 59.05229 | 18.10882 | 14227 ft | 294 kts | 24° |
| 2026-05-06 20:05 | 59.07020 | 18.12602 | 13997 ft | 280 kts | 24° |
| 2026-05-06 20:05 | 59.08767 | 18.14174 | 13618 ft | 273 kts | 17° |
| 2026-05-06 20:05 | 59.10562 | 18.15146 | 13387 ft | 270 kts | 7° |
| 2026-05-06 20:06 | 59.12449 | 18.15512 | 13173 ft | 268 kts | 0° |
| 2026-05-06 20:06 | 59.14309 | 18.15712 | 12967 ft | 268 kts | 1° |
| 2026-05-06 20:06 | 59.16169 | 18.15929 | 12752 ft | 266 kts | 1° |
| 2026-05-06 20:06 | 59.18007 | 18.16152 | 12548 ft | 265 kts | 1° |
| 2026-05-06 20:07 | 59.19849 | 18.16371 | 12351 ft | 264 kts | 0° |
| 2026-05-06 20:07 | 59.21657 | 18.16588 | 12141 ft | 263 kts | 0° |
| 2026-05-06 20:07 | 59.23480 | 18.16808 | 11934 ft | 262 kts | 0° |
| 2026-05-06 20:07 | 59.25287 | 18.17023 | 11771 ft | 256 kts | 0° |
| 2026-05-06 20:08 | 59.27044 | 18.17229 | 11571 ft | 251 kts | 0° |
| 2026-05-06 20:08 | 59.28776 | 18.17431 | 11349 ft | 248 kts | 1° |
| 2026-05-06 20:08 | 59.30499 | 18.17635 | 11150 ft | 247 kts | 1° |
| 2026-05-06 20:08 | 59.32211 | 18.17842 | 10958 ft | 246 kts | 1° |
| 2026-05-06 20:09 | 59.33915 | 18.18047 | 10756 ft | 245 kts | 1° |
| 2026-05-06 20:09 | 59.35614 | 18.18248 | 10576 ft | 244 kts | 1° |
| 2026-05-06 20:09 | 59.37308 | 18.18447 | 10382 ft | 243 kts | 1° |
| 2026-05-06 20:09 | 59.38997 | 18.18644 | 10196 ft | 242 kts | 1° |
| 2026-05-06 20:10 | 59.40676 | 18.18842 | 10064 ft | 242 kts | 1° |
| 2026-05-06 20:10 | 59.42354 | 18.19042 | 10021 ft | 242 kts | 1° |
| 2026-05-06 20:10 | 59.44062 | 18.19247 | 9675 ft | 246 kts | 2° |
| 2026-05-06 20:10 | 59.45750 | 18.19453 | 9481 ft | 242 kts | 2° |
| 2026-05-06 20:11 | 59.47420 | 18.19653 | 9221 ft | 239 kts | 2° |
| 2026-05-06 20:11 | 59.49074 | 18.19852 | 9048 ft | 237 kts | 1° |
| 2026-05-06 20:11 | 59.50715 | 18.20048 | 8851 ft | 236 kts | 1° |
| 2026-05-06 20:11 | 59.52347 | 18.20238 | 8650 ft | 235 kts | 1° |
| 2026-05-06 20:12 | 59.53975 | 18.20610 | 8460 ft | 235 kts | 9° |
| 2026-05-06 20:12 | 59.55582 | 18.21190 | 8246 ft | 234 kts | 9° |
| 2026-05-06 20:12 | 59.57176 | 18.21769 | 8036 ft | 233 kts | 9° |
| 2026-05-06 20:12 | 59.58774 | 18.22329 | 7794 ft | 232 kts | 9° |
| 2026-05-06 20:13 | 59.60360 | 18.22886 | 7524 ft | 231 kts | 9° |
| 2026-05-06 20:13 | 59.61935 | 18.23441 | 7250 ft | 230 kts | 9° |
| 2026-05-06 20:13 | 59.63506 | 18.23991 | 6977 ft | 229 kts | 9° |
| 2026-05-06 20:13 | 59.65068 | 18.24529 | 6708 ft | 227 kts | 9° |
| 2026-05-06 20:14 | 59.66605 | 18.25040 | 6448 ft | 226 kts | 9° |
| 2026-05-06 20:14 | 59.68180 | 18.25553 | 6162 ft | 225 kts | 9° |
| 2026-05-06 20:14 | 59.69720 | 18.26050 | 5880 ft | 224 kts | 9° |
| 2026-05-06 20:14 | 59.71231 | 18.26531 | 5595 ft | 223 kts | 9° |
| 2026-05-06 20:15 | 59.72761 | 18.27013 | 5309 ft | 222 kts | 9° |
| 2026-05-06 20:15 | 59.74307 | 18.27494 | 5024 ft | 221 kts | 9° |
| 2026-05-06 20:15 | 59.75823 | 18.27960 | 4747 ft | 220 kts | 9° |
| 2026-05-06 20:15 | 59.77334 | 18.28420 | 4437 ft | 220 kts | 8° |
| 2026-05-06 20:16 | 59.78834 | 18.28922 | 4089 ft | 222 kts | 9° |
| 2026-05-06 20:16 | 59.80359 | 18.29431 | 3762 ft | 223 kts | 9° |
| 2026-05-06 20:16 | 59.81895 | 18.29940 | 3473 ft | 223 kts | 9° |
| 2026-05-06 20:16 | 59.83433 | 18.30440 | 3511 ft | 225 kts | 9° |
| 2026-05-06 20:17 | 59.84975 | 18.30929 | 3518 ft | 225 kts | 6° |
| 2026-05-06 20:17 | 59.86501 | 18.30510 | 3520 ft | 223 kts | 333° |
| 2026-05-06 20:17 | 59.87631 | 18.28510 | 3523 ft | 219 kts | 298° |
| 2026-05-06 20:17 | 59.88296 | 18.25776 | 3526 ft | 220 kts | 296° |
| 2026-05-06 20:18 | 59.89030 | 18.23178 | 3518 ft | 208 kts | 298° |
| 2026-05-06 20:18 | 59.89750 | 18.20760 | 3512 ft | 200 kts | 299° |
| 2026-05-06 20:18 | 59.90284 | 18.18341 | 3502 ft | 183 kts | 272° |
| 2026-05-06 20:18 | 59.90017 | 18.15998 | 3512 ft | 174 kts | 237° |
| 2026-05-06 20:19 | 59.89224 | 18.14215 | 3529 ft | 172 kts | 218° |
| 2026-05-06 20:19 | 59.88288 | 18.12851 | 3545 ft | 164 kts | 213° |
| 2026-05-06 20:19 | 59.87378 | 18.11647 | 3520 ft | 146 kts | 213° |
| 2026-05-06 20:19 | 59.86602 | 18.10424 | 3500 ft | 141 kts | 229° |
| 2026-05-06 20:20 | 59.86042 | 18.08823 | 3514 ft | 142 kts | 237° |
| 2026-05-06 20:20 | 59.85539 | 18.07145 | 3515 ft | 141 kts | 238° |
| 2026-05-06 20:20 | 59.85047 | 18.05459 | 3514 ft | 141 kts | 238° |
| 2026-05-06 20:20 | 59.84503 | 18.03866 | 3517 ft | 138 kts | 223° |
| 2026-05-06 20:21 | 59.83708 | 18.02832 | 3518 ft | 137 kts | 200° |
| 2026-05-06 20:21 | 59.82785 | 18.02425 | 3519 ft | 136 kts | 191° |
| 2026-05-06 20:21 | 59.81856 | 18.02066 | 3514 ft | 136 kts | 193° |
| 2026-05-06 20:21 | 59.80940 | 18.01596 | 3460 ft | 137 kts | 192° |
| 2026-05-06 20:22 | 59.79995 | 18.01316 | 3254 ft | 136 kts | 188° |
| 2026-05-06 20:22 | 59.79374 | 18.01120 | 3113 ft | 136 kts | 188° |
| 2026-05-06 20:22 | 59.78435 | 18.00804 | 2919 ft | 137 kts | 189° |
| 2026-05-06 20:22 | 59.77499 | 18.00474 | 2730 ft | 137 kts | 189° |
| 2026-05-06 20:23 | 59.76566 | 18.00139 | 2536 ft | 136 kts | 189° |
| 2026-05-06 20:23 | 59.75639 | 17.99804 | 2345 ft | 135 kts | 189° |
| 2026-05-06 20:23 | 59.74720 | 17.99469 | 2152 ft | 134 kts | 188° |
| 2026-05-06 20:23 | 59.73509 | 17.99028 | 1913 ft | 133 kts | 189° |
| 2026-05-06 20:24 | 59.72895 | 17.98804 | 1788 ft | 133 kts | 189° |
| 2026-05-06 20:24 | 59.71989 | 17.98474 | 1591 ft | 132 kts | 189° |
| 2026-05-06 20:24 | 59.71083 | 17.98144 | 1412 ft | 132 kts | 189° |
| 2026-05-06 20:24 | 59.70178 | 17.97814 | 1227 ft | 132 kts | 189° |
| 2026-05-06 20:25 | 59.69276 | 17.97486 | 1041 ft | 132 kts | 189° |
| 2026-05-06 20:25 | 59.68370 | 17.97159 | 857 ft | 133 kts | 188° |
| 2026-05-06 20:25 | 59.67460 | 17.96816 | 683 ft | 133 kts | 189° |
| 2026-05-06 20:25 | 59.66546 | 17.96494 | 504 ft | 134 kts | 187° |
| 2026-05-06 20:26 | 59.65633 | 17.96154 | 299 ft | 133 kts | 188° |
| 2026-05-06 20:26 | 59.64721 | 17.95830 | 124 ft | 133 kts | 188° |
| 2026-05-06 20:26 | 59.63940 | 17.95553 | 113 ft | 91 kts | 190° |
| 2026-05-06 20:26 | 59.63463 | 17.95378 | 122 ft | 51 kts | 191° |
| 2026-05-06 20:27 | 59.63131 | 17.95246 | 129 ft | 2 kts | 192° |
| 2026-05-06 20:27 | 59.63098 | 17.95228 | 132 ft | 8 kts | 200° |
| 2026-05-06 20:27 | 59.63034 | 17.95180 | 135 ft | 10 kts | 200° |
| 2026-05-06 20:28 | 59.62970 | 17.95090 | 136 ft | 13 kts | 219° |
| 2026-05-06 20:28 | 59.62893 | 17.94970 | 136 ft | 15 kts | 218° |
| 2026-05-06 20:28 | 59.62844 | 17.94828 | 137 ft | 8 kts | 277° |
| 2026-05-06 20:28 | 59.62889 | 17.94761 | 137 ft | 10 kts | 359° |
| 2026-05-06 20:29 | 59.62974 | 17.94789 | 134 ft | 15 kts | 11° |
| 2026-05-06 20:29 | 59.63096 | 17.94835 | 129 ft | 21 kts | 11° |
| 2026-05-06 20:29 | 59.63257 | 17.94892 | 125 ft | 26 kts | 10° |
| 2026-05-06 20:29 | 59.63442 | 17.94963 | 120 ft | 24 kts | 9° |
| 2026-05-06 20:30 | 59.63622 | 17.95025 | 114 ft | 29 kts | 11° |
| 2026-05-06 20:30 | 59.63983 | 17.95152 | 109 ft | 29 kts | 11° |
| 2026-05-06 20:30 | 59.64170 | 17.95222 | 107 ft | 28 kts | 10° |
| 2026-05-06 20:31 | 59.64337 | 17.95283 | 106 ft | 22 kts | 11° |
| 2026-05-06 20:31 | 59.64494 | 17.95340 | 105 ft | 24 kts | 10° |
| 2026-05-06 20:31 | 59.64662 | 17.95402 | 105 ft | 25 kts | 11° |
| 2026-05-06 20:31 | 59.64834 | 17.95464 | 107 ft | 25 kts | 10° |
| 2026-05-06 20:32 | 59.65003 | 17.95517 | 113 ft | 23 kts | 360° |
| 2026-05-06 20:32 | 59.65154 | 17.95457 | 117 ft | 21 kts | 344° |
| 2026-05-06 20:32 | 59.65285 | 17.95387 | 125 ft | 19 kts | 345° |
| 2026-05-06 20:32 | 59.65406 | 17.95322 | 126 ft | 18 kts | 345° |
| 2026-05-06 20:33 | 59.65528 | 17.95258 | 127 ft | 19 kts | 345° |
| 2026-05-06 20:33 | 59.65656 | 17.95189 | 128 ft | 19 kts | 344° |
| 2026-05-06 20:33 | 59.65746 | 17.95022 | 126 ft | 21 kts | 266° |
| 2026-05-06 20:33 | 59.65713 | 17.94731 | 121 ft | 22 kts | 256° |
| 2026-05-06 20:34 | 59.65675 | 17.94428 | 124 ft | 23 kts | 256° |
| 2026-05-06 20:34 | 59.65634 | 17.94107 | 121 ft | 26 kts | 256° |
| 2026-05-06 20:34 | 59.65589 | 17.93756 | 113 ft | 26 kts | 256° |
| 2026-05-06 20:34 | 59.65551 | 17.93456 | 112 ft | 10 kts | 256° |
| 2026-05-06 20:35 | 59.65529 | 17.93362 | 112 ft | 8 kts | 218° |
| 2026-05-06 20:35 | 59.65476 | 17.93343 | 111 ft | 9 kts | 186° |
| 2026-05-06 20:35 | 59.65438 | 17.93353 | 110 ft | 1 kts | 166° |
| 2026-05-06 20:35 | 59.65428 | 17.93361 | 112 ft | 3 kts | 156° |
| 2026-05-06 20:36 | 59.65423 | 17.93403 | 112 ft | 4 kts | 89° |
| 2026-05-06 20:36 | 59.65430 | 17.93469 | 112 ft | 6 kts | 76° |
| 2026-05-06 20:36 | 59.65433 | 17.93499 | 110 ft | 0 kts | 76° |